createdAt,value
2018-09-26T00:00:32.964Z,10.10
2018-09-26T00:03:11.647Z,10.10
2018-09-26T00:05:46.808Z,10.10
2018-09-26T00:08:21.835Z,10.10
2018-09-26T00:10:56.275Z,10.10
2018-09-26T00:13:30.570Z,10.10
2018-09-26T00:16:05.792Z,10.10
2018-09-26T00:18:43.289Z,10.10
2018-09-26T00:21:20.070Z,10.00
2018-09-26T00:23:53.768Z,10.00
2018-09-26T00:26:27.972Z,10.00
2018-09-26T00:29:00.990Z,10.00
2018-09-26T00:31:36.807Z,10.00
2018-09-26T00:34:08.666Z,10.00
2018-09-26T00:36:39.462Z,10.00
2018-09-26T00:39:11.215Z,10.00
2018-09-26T00:41:44.418Z,10.00
2018-09-26T00:44:18.459Z,10.00
2018-09-26T00:46:53.972Z,10.00
2018-09-26T00:49:26.090Z,9.90
2018-09-26T00:51:57.289Z,9.90
2018-09-26T00:54:31.129Z,9.90
2018-09-26T00:57:04.683Z,9.90
2018-09-26T00:59:37.429Z,9.90
2018-09-26T01:02:09.777Z,9.90
2018-09-26T01:04:41.838Z,9.90
2018-09-26T01:07:14.292Z,9.90
2018-09-26T01:09:45.183Z,9.80
2018-09-26T01:12:16.691Z,9.80
2018-09-26T01:14:47.911Z,9.80
2018-09-26T01:17:21.263Z,9.70
2018-09-26T01:19:52.817Z,9.70
2018-09-26T01:22:28.318Z,9.60
2018-09-26T01:24:57.530Z,9.70
2018-09-26T01:27:33.411Z,9.60
2018-09-26T01:30:07.951Z,9.60
2018-09-26T01:32:40.505Z,9.60
2018-09-26T01:35:12.683Z,9.60
2018-09-26T01:37:44.042Z,9.60
2018-09-26T01:40:18.465Z,9.50
2018-09-26T01:42:48.746Z,9.50
2018-09-26T01:45:18.505Z,9.50
2018-09-26T01:47:52.533Z,9.50
2018-09-26T01:50:22.197Z,9.50
2018-09-26T01:52:51.076Z,9.40
2018-09-26T01:55:25.268Z,9.40
2018-09-26T01:57:55.386Z,9.40
2018-09-26T02:00:27.091Z,9.40
2018-09-26T02:02:59.237Z,9.40
2018-09-26T02:05:30.657Z,9.30
2018-09-26T02:08:05.216Z,9.40
2018-09-26T02:10:34.797Z,9.30
2018-09-26T02:13:04.627Z,9.30
2018-09-26T02:15:33.446Z,9.30
2018-09-26T02:18:04.773Z,9.30
2018-09-26T02:20:34.904Z,9.30
2018-09-26T02:23:04.590Z,9.30
2018-09-26T02:25:33.399Z,9.30
2018-09-26T02:28:04.746Z,9.30
2018-09-26T02:30:38.176Z,9.30
2018-09-26T02:33:12.425Z,9.30
2018-09-26T02:35:43.452Z,9.30
2018-09-26T02:38:15.003Z,9.30
2018-09-26T02:40:46.656Z,9.30
2018-09-26T02:43:20.517Z,9.30
2018-09-26T02:45:52.137Z,9.30
2018-09-26T02:48:27.584Z,9.20
2018-09-26T02:50:57.074Z,9.30
2018-09-26T02:53:29.998Z,9.20
2018-09-26T02:56:02.081Z,9.20
2018-09-26T02:58:31.744Z,9.20
2018-09-26T03:01:06.234Z,9.20
2018-09-26T03:03:38.173Z,9.20
2018-09-26T03:06:09.276Z,9.20
2018-09-26T03:08:41.800Z,9.20
2018-09-26T03:11:12.536Z,9.20
2018-09-26T03:13:42.071Z,9.10
2018-09-26T03:16:14.164Z,9.10
2018-09-26T03:18:43.328Z,9.10
2018-09-26T03:21:14.796Z,9.20
2018-09-26T03:23:44.483Z,9.20
2018-09-26T03:26:16.459Z,9.20
2018-09-26T03:28:48.269Z,9.20
2018-09-26T03:31:20.468Z,9.20
2018-09-26T03:33:51.402Z,9.20
2018-09-26T03:36:22.133Z,9.20
2018-09-26T03:38:51.585Z,9.30
2018-09-26T03:41:25.428Z,9.30
2018-09-26T03:43:57.821Z,9.30
2018-09-26T03:46:28.173Z,9.40
2018-09-26T03:49:01.366Z,9.40
2018-09-26T03:51:31.566Z,9.40
2018-09-26T03:54:03.362Z,9.40
2018-09-26T03:56:35.761Z,9.40
2018-09-26T03:59:08.131Z,9.40
2018-09-26T04:01:39.386Z,9.40
2018-09-26T04:04:08.192Z,9.40
2018-09-26T04:06:36.944Z,9.40
2018-09-26T04:09:11.912Z,9.40
2018-09-26T04:11:41.976Z,9.40
2018-09-26T04:14:12.058Z,9.30
2018-09-26T04:16:43.917Z,9.30
2018-09-26T04:19:17.337Z,9.30
2018-09-26T04:21:46.834Z,9.30
2018-09-26T04:24:22.303Z,9.20
2018-09-26T04:26:55.829Z,9.20
2018-09-26T04:29:24.602Z,9.20
2018-09-26T04:31:57.207Z,9.20
2018-09-26T04:34:29.098Z,9.20
2018-09-26T04:37:01.350Z,9.20
2018-09-26T04:39:31.642Z,9.10
2018-09-26T04:42:02.750Z,9.10
2018-09-26T04:44:34.139Z,9.20
2018-09-26T04:47:03.839Z,9.20
2018-09-26T04:49:34.332Z,9.20
2018-09-26T04:52:06.851Z,9.10
2018-09-26T15:44:12.825Z,22.80
2018-09-26T15:46:43.748Z,22.60
2018-09-26T15:49:14.288Z,22.40
2018-09-26T15:51:42.995Z,22.30
2018-09-26T15:54:12.527Z,22.20
2018-09-26T15:56:41.266Z,22.20
2018-09-26T15:59:10.590Z,22.20
2018-09-26T16:01:40.057Z,22.30
2018-09-26T16:04:09.148Z,22.20
2018-09-26T16:06:38.641Z,22.10
2018-09-26T16:09:07.471Z,22.00
2018-09-26T16:11:36.329Z,21.80
2018-09-26T16:14:05.099Z,21.60
2018-09-26T16:16:33.838Z,21.50
2018-09-26T16:19:02.532Z,21.30
2018-09-26T16:21:31.187Z,21.30
2018-09-26T16:23:59.875Z,21.10
2018-09-26T16:26:28.758Z,20.90
2018-09-26T16:28:57.406Z,20.80
2018-09-26T16:31:26.109Z,20.70
2018-09-26T16:33:57.024Z,20.50
2018-09-26T16:36:25.718Z,20.40
2018-09-26T16:38:54.342Z,20.30
2018-09-26T16:41:23.023Z,20.30
2018-09-26T16:43:51.647Z,20.10
2018-09-26T16:46:20.346Z,20.00
2018-09-26T16:48:49.015Z,20.00
2018-09-26T16:51:17.676Z,19.90
2018-09-26T16:53:46.347Z,19.90
2018-09-26T16:56:15.028Z,19.80
2018-09-26T16:58:43.596Z,19.70
2018-09-26T17:01:12.258Z,19.70
2018-09-26T17:03:40.958Z,19.70
2018-09-26T17:06:09.758Z,19.70
2018-09-26T17:08:38.288Z,19.60
2018-09-26T17:11:06.975Z,19.50
2018-09-26T17:13:35.628Z,19.40
2018-09-26T17:16:04.901Z,19.30
2018-09-26T17:18:33.526Z,19.30
2018-09-26T17:21:02.150Z,19.20
2018-09-26T17:23:30.746Z,19.20
2018-09-26T17:25:59.448Z,19.10
2018-09-26T17:28:28.122Z,19.10
2018-09-26T17:30:56.698Z,19.10
2018-09-26T17:33:25.353Z,19.00
2018-09-26T17:35:53.980Z,18.90
2018-09-26T17:38:22.591Z,18.90
2018-09-26T17:40:51.285Z,18.90
2018-09-26T17:43:19.997Z,18.80
2018-09-26T17:45:48.644Z,18.80
2018-09-26T17:48:17.365Z,18.70
2018-09-26T17:50:46.000Z,18.70
2018-09-26T17:53:14.648Z,18.60
2018-09-26T17:55:43.322Z,18.60
2018-09-26T17:58:11.980Z,18.60
2018-09-26T18:00:40.720Z,18.50
2018-09-26T18:03:09.488Z,18.60
2018-09-26T18:05:38.139Z,18.50
2018-09-26T18:08:06.980Z,18.50
2018-09-26T18:10:35.677Z,18.40
2018-09-26T18:13:04.335Z,18.40
2018-09-26T18:15:33.049Z,18.40
2018-09-26T18:18:01.744Z,18.40
2018-09-26T18:20:30.420Z,18.30
2018-09-26T18:22:59.000Z,18.30
2018-09-26T18:25:27.662Z,18.30
2018-09-26T18:27:56.295Z,18.30
2018-09-26T18:30:25.033Z,18.20
2018-09-26T18:32:53.675Z,18.20
2018-09-26T18:35:22.291Z,18.20
2018-09-26T18:37:50.949Z,18.00
2018-09-26T18:40:19.613Z,18.00
2018-09-26T18:42:48.267Z,18.10
2018-09-26T18:45:16.905Z,18.00
2018-09-26T18:47:45.622Z,18.00
2018-09-26T18:50:14.386Z,18.00
2018-09-26T18:52:43.097Z,17.90
2018-09-26T18:55:11.803Z,17.90
2018-09-26T18:57:40.496Z,17.90
2018-09-26T19:00:09.379Z,17.90
2018-09-26T19:02:38.710Z,17.80
2018-09-26T19:05:07.570Z,17.80
2018-09-26T19:07:42.846Z,17.80
2018-09-26T19:10:11.467Z,17.70
2018-09-26T19:12:40.154Z,17.70
2018-09-26T19:15:08.895Z,17.70
2018-09-26T19:17:37.515Z,17.70
2018-09-26T19:20:06.417Z,17.70
2018-09-26T19:22:35.180Z,17.60
2018-09-26T19:25:03.891Z,17.60
2018-09-26T19:27:32.615Z,17.60
2018-09-26T19:30:01.340Z,17.60
2018-09-26T19:32:30.033Z,17.60
2018-09-26T19:34:58.732Z,17.60
2018-09-26T19:37:27.473Z,17.50
2018-09-26T19:39:56.116Z,17.50
2018-09-26T19:42:24.752Z,17.50
2018-09-26T19:44:53.431Z,17.50
2018-09-26T19:47:22.099Z,17.50
2018-09-26T19:49:50.728Z,17.40
2018-09-26T19:52:20.517Z,17.40
2018-09-26T19:54:49.127Z,17.40
2018-09-26T19:57:17.815Z,17.40
2018-09-26T19:59:46.493Z,17.30
2018-09-26T20:02:15.106Z,17.30
2018-09-26T20:04:43.736Z,17.30
2018-09-26T20:07:12.433Z,17.30
2018-09-26T20:09:41.114Z,17.30
2018-09-26T20:12:09.910Z,17.30
2018-09-26T20:14:38.566Z,17.30
2018-09-26T20:17:07.357Z,17.20
2018-09-26T20:19:35.964Z,17.20
2018-09-26T20:22:05.566Z,17.20
2018-09-26T20:24:34.202Z,17.20
2018-09-26T20:27:02.903Z,17.20
2018-09-26T20:29:31.662Z,17.20
2018-09-26T20:32:00.162Z,17.10
2018-09-26T20:34:28.798Z,17.10
2018-09-26T20:36:58.526Z,17.20
2018-09-26T20:39:27.152Z,17.10
2018-09-26T20:41:55.842Z,17.10
2018-09-26T20:44:24.601Z,17.10
2018-09-26T20:46:53.307Z,17.10
2018-09-26T20:49:21.917Z,17.10
2018-09-26T20:51:50.626Z,17.00
2018-09-26T20:54:19.239Z,17.00
2018-09-26T20:56:47.912Z,17.00
2018-09-26T20:59:16.641Z,17.00
2018-09-26T21:01:45.400Z,17.00
2018-09-26T21:04:14.052Z,16.90
2018-09-26T21:06:42.720Z,16.90
2018-09-26T21:09:11.692Z,16.90
2018-09-26T21:11:40.778Z,16.90
2018-09-26T21:14:09.499Z,16.90
2018-09-26T21:16:38.209Z,16.90
2018-09-26T21:19:06.932Z,16.90
2018-09-26T21:21:35.735Z,16.80
2018-09-26T21:24:04.619Z,16.80
2018-09-26T21:26:33.379Z,16.80
2018-09-26T21:29:02.115Z,16.80
2018-09-26T21:31:30.798Z,16.80
2018-09-26T21:33:59.474Z,16.80
2018-09-26T21:36:28.194Z,16.80
2018-09-26T21:38:56.895Z,16.80
2018-09-26T21:41:25.593Z,16.80
2018-09-26T21:43:54.300Z,16.70
2018-09-26T21:46:22.901Z,16.70
2018-09-26T21:48:51.560Z,16.60
2018-09-26T21:51:20.251Z,16.60
2018-09-26T21:53:49.017Z,16.60
2018-09-26T21:56:17.675Z,16.60
2018-09-26T21:58:46.311Z,16.50
2018-09-26T22:01:16.447Z,16.40
2018-09-26T22:03:45.133Z,16.30
2018-09-26T22:06:13.816Z,16.20
2018-09-26T22:08:42.765Z,16.20
2018-09-26T22:11:11.446Z,16.20
2018-09-26T22:13:40.940Z,16.10
2018-09-26T22:16:09.653Z,16.10
2018-09-26T22:18:38.348Z,16.10
2018-09-26T22:21:07.053Z,16.10
2018-09-26T22:23:35.786Z,16.10
2018-09-26T22:26:04.422Z,16.20
2018-09-26T22:28:33.048Z,16.20
2018-09-26T22:31:01.669Z,16.20
2018-09-26T22:33:30.341Z,16.10
2018-09-26T22:35:59.179Z,16.10
2018-09-26T22:38:27.787Z,16.20
2018-09-26T22:40:56.428Z,16.20
2018-09-26T22:43:25.101Z,16.10
2018-09-26T22:45:53.711Z,16.10
2018-09-26T22:48:22.316Z,16.00
2018-09-26T22:50:51.074Z,15.90
2018-09-26T22:53:19.727Z,15.90
2018-09-26T22:55:48.359Z,15.90
2018-09-26T22:58:16.989Z,15.90
2018-09-26T23:00:45.641Z,15.90
2018-09-26T23:03:14.280Z,15.90
2018-09-26T23:05:43.025Z,15.90
2018-09-26T23:08:11.658Z,15.80
2018-09-26T23:10:40.295Z,15.80
2018-09-26T23:13:09.050Z,15.70
2018-09-26T23:15:37.689Z,15.60
2018-09-26T23:18:13.688Z,15.60
2018-09-26T23:24:08.568Z,15.50
2018-09-26T23:29:48.095Z,15.40
2018-09-26T23:35:14.049Z,15.30
2018-09-26T23:37:47.667Z,15.30
2018-09-26T23:40:21.005Z,15.20
2018-09-26T23:42:55.406Z,15.20
2018-09-26T23:45:29.999Z,15.20
2018-09-26T23:48:03.343Z,15.20
2018-09-26T23:50:36.744Z,15.10
2018-09-26T23:53:09.902Z,15.10
2018-09-26T23:55:43.495Z,15.10
2018-09-26T23:58:17.108Z,15.10
